sensor_id;sensor_type;location;lat;lon;timestamp;P1;durP1;ratioP1;P2;durP2;ratioP2
6424;SDS011;12193;42.642;23.384;2022-11-12T00:01:41;27.03;;;14.17;;
6424;SDS011;12193;42.642;23.384;2022-11-12T00:04:13;29.37;;;14.53;;
6424;SDS011;12193;42.642;23.384;2022-11-12T00:06:42;28.50;;;13.63;;
6424;SDS011;12193;42.642;23.384;2022-11-12T00:09:11;25.90;;;13.60;;
6424;SDS011;12193;42.642;23.384;2022-11-12T00:11:40;25.93;;;12.63;;
6424;SDS011;12193;42.642;23.384;2022-11-12T00:14:09;25.40;;;12.67;;
6424;SDS011;12193;42.642;23.384;2022-11-12T00:16:39;23.00;;;12.03;;
6424;SDS011;12193;42.642;23.384;2022-11-12T00:19:08;23.20;;;11.80;;
6424;SDS011;12193;42.642;23.384;2022-11-12T00:21:40;23.93;;;11.90;;
6424;SDS011;12193;42.642;23.384;2022-11-12T00:24:09;22.63;;;12.33;;
6424;SDS011;12193;42.642;23.384;2022-11-12T00:26:39;25.43;;;12.63;;
6424;SDS011;12193;42.642;23.384;2022-11-12T00:29:08;25.93;;;12.73;;
6424;SDS011;12193;42.642;23.384;2022-11-12T00:31:37;26.53;;;13.50;;
6424;SDS011;12193;42.642;23.384;2022-11-12T00:34:06;26.47;;;13.33;;
6424;SDS011;12193;42.642;23.384;2022-11-12T00:36:36;25.73;;;13.17;;
6424;SDS011;12193;42.642;23.384;2022-11-12T00:39:08;29.40;;;14.10;;
6424;SDS011;12193;42.642;23.384;2022-11-12T00:41:37;27.37;;;13.37;;
6424;SDS011;12193;42.642;23.384;2022-11-12T00:44:06;32.83;;;15.27;;
6424;SDS011;12193;42.642;23.384;2022-11-12T00:46:35;27.40;;;14.50;;
6424;SDS011;12193;42.642;23.384;2022-11-12T00:49:04;30.00;;;14.43;;
6424;SDS011;12193;42.642;23.384;2022-11-12T00:51:34;29.00;;;14.57;;
6424;SDS011;12193;42.642;23.384;2022-11-12T00:54:03;26.53;;;14.13;;
6424;SDS011;12193;42.642;23.384;2022-11-12T00:56:36;32.73;;;15.37;;
6424;SDS011;12193;42.642;23.384;2022-11-12T00:59:05;32.30;;;15.27;;
6424;SDS011;12193;42.642;23.384;2022-11-12T01:01:34;30.30;;;14.73;;
6424;SDS011;12193;42.642;23.384;2022-11-12T01:04:04;29.67;;;15.13;;
6424;SDS011;12193;42.642;23.384;2022-11-12T04:08:30;19.27;;;9.40;;
6424;SDS011;12193;42.642;23.384;2022-11-12T04:11:06;18.57;;;9.30;;
6424;SDS011;12193;42.642;23.384;2022-11-12T04:13:37;16.93;;;8.87;;
6424;SDS011;12193;42.642;23.384;2022-11-12T04:16:08;18.90;;;9.37;;
6424;SDS011;12193;42.642;23.384;2022-11-12T04:18:51;19.50;;;10.00;;
6424;SDS011;12193;42.642;23.384;2022-11-12T04:21:35;18.03;;;9.60;;
6424;SDS011;12193;42.642;23.384;2022-11-12T04:24:23;20.90;;;9.87;;
6424;SDS011;12193;42.642;23.384;2022-11-12T04:27:06;18.03;;;9.83;;
6424;SDS011;12193;42.642;23.384;2022-11-12T04:29:36;20.80;;;9.00;;
6424;SDS011;12193;42.642;23.384;2022-11-12T04:32:18;17.43;;;8.50;;
6424;SDS011;12193;42.642;23.384;2022-11-12T04:34:48;16.50;;;8.63;;
6424;SDS011;12193;42.642;23.384;2022-11-12T04:37:17;15.90;;;8.30;;
6424;SDS011;12193;42.642;23.384;2022-11-12T04:39:50;17.87;;;9.07;;
6424;SDS011;12193;42.642;23.384;2022-11-12T04:42:19;16.90;;;8.53;;
6424;SDS011;12193;42.642;23.384;2022-11-12T04:45:01;14.77;;;7.50;;
6424;SDS011;12193;42.642;23.384;2022-11-12T04:47:32;14.60;;;8.20;;
6424;SDS011;12193;42.642;23.384;2022-11-12T04:50:02;17.37;;;8.70;;
6424;SDS011;12193;42.642;23.384;2022-11-12T04:52:34;17.27;;;8.30;;
6424;SDS011;12193;42.642;23.384;2022-11-12T04:55:06;14.17;;;7.17;;
6424;SDS011;12193;42.642;23.384;2022-11-12T04:57:37;14.83;;;7.53;;
6424;SDS011;12193;42.642;23.384;2022-11-12T05:00:07;15.73;;;7.87;;
6424;SDS011;12193;42.642;23.384;2022-11-12T05:02:38;13.13;;;7.30;;
6424;SDS011;12193;42.642;23.384;2022-11-12T05:05:07;12.43;;;7.57;;
6424;SDS011;12193;42.642;23.384;2022-11-12T05:07:37;12.80;;;7.40;;
6424;SDS011;12193;42.642;23.384;2022-11-12T05:10:09;16.30;;;7.17;;
6424;SDS011;12193;42.642;23.384;2022-11-12T05:12:38;13.27;;;7.43;;
6424;SDS011;12193;42.642;23.384;2022-11-12T05:15:09;14.73;;;7.53;;
6424;SDS011;12193;42.642;23.384;2022-11-12T05:17:40;13.30;;;7.20;;
6424;SDS011;12193;42.642;23.384;2022-11-12T05:20:11;14.13;;;7.13;;
6424;SDS011;12193;42.642;23.384;2022-11-12T05:22:41;15.67;;;6.90;;
6424;SDS011;12193;42.642;23.384;2022-11-12T05:25:13;13.67;;;7.03;;
6424;SDS011;12193;42.642;23.384;2022-11-12T05:27:43;12.53;;;6.93;;
6424;SDS011;12193;42.642;23.384;2022-11-12T05:30:13;15.93;;;7.93;;
6424;SDS011;12193;42.642;23.384;2022-11-12T05:32:42;11.27;;;6.93;;
6424;SDS011;12193;42.642;23.384;2022-11-12T05:35:11;14.07;;;8.10;;
6424;SDS011;12193;42.642;23.384;2022-11-12T05:37:40;19.40;;;9.47;;
6424;SDS011;12193;42.642;23.384;2022-11-12T05:40:14;16.70;;;9.20;;
6424;SDS011;12193;42.642;23.384;2022-11-12T05:42:43;16.23;;;9.67;;
6424;SDS011;12193;42.642;23.384;2022-11-12T05:45:13;18.30;;;9.60;;
6424;SDS011;12193;42.642;23.384;2022-11-12T05:47:42;16.13;;;9.13;;
6424;SDS011;12193;42.642;23.384;2022-11-12T05:50:12;17.27;;;8.33;;
6424;SDS011;12193;42.642;23.384;2022-11-12T05:52:42;15.37;;;7.70;;
6424;SDS011;12193;42.642;23.384;2022-11-12T05:55:15;16.90;;;7.83;;
6424;SDS011;12193;42.642;23.384;2022-11-12T05:57:45;13.57;;;7.67;;
6424;SDS011;12193;42.642;23.384;2022-11-12T06:00:14;14.23;;;7.67;;
6424;SDS011;12193;42.642;23.384;2022-11-12T06:02:45;12.60;;;7.77;;
6424;SDS011;12193;42.642;23.384;2022-11-12T06:05:14;13.47;;;7.43;;
6424;SDS011;12193;42.642;23.384;2022-11-12T06:07:43;13.30;;;7.53;;
6424;SDS011;12193;42.642;23.384;2022-11-12T06:10:15;13.03;;;7.90;;
6424;SDS011;12193;42.642;23.384;2022-11-12T06:12:45;13.53;;;7.00;;
6424;SDS011;12193;42.642;23.384;2022-11-12T06:15:14;12.70;;;6.90;;
6424;SDS011;12193;42.642;23.384;2022-11-12T06:17:43;9.43;;;5.20;;
6424;SDS011;12193;42.642;23.384;2022-11-12T06:20:13;7.77;;;4.97;;
6424;SDS011;12193;42.642;23.384;2022-11-12T06:22:42;9.90;;;5.60;;
6424;SDS011;12193;42.642;23.384;2022-11-12T06:25:12;8.37;;;5.43;;
6424;SDS011;12193;42.642;23.384;2022-11-12T06:27:44;7.07;;;5.10;;
6424;SDS011;12193;42.642;23.384;2022-11-12T06:30:13;10.60;;;5.63;;
6424;SDS011;12193;42.642;23.384;2022-11-12T06:32:44;9.13;;;5.53;;
6424;SDS011;12193;42.642;23.384;2022-11-12T06:35:14;8.03;;;5.13;;
6424;SDS011;12193;42.642;23.384;2022-11-12T06:37:44;10.10;;;5.87;;
6424;SDS011;12193;42.642;23.384;2022-11-12T06:40:16;8.97;;;6.20;;
6424;SDS011;12193;42.642;23.384;2022-11-12T06:42:46;7.87;;;4.87;;
6424;SDS011;12193;42.642;23.384;2022-11-12T06:45:16;9.40;;;4.67;;
6424;SDS011;12193;42.642;23.384;2022-11-12T06:47:45;9.53;;;5.27;;
6424;SDS011;12193;42.642;23.384;2022-11-12T06:50:15;9.13;;;5.37;;
6424;SDS011;12193;42.642;23.384;2022-11-12T06:52:44;9.53;;;5.47;;
6424;SDS011;12193;42.642;23.384;2022-11-12T06:55:13;10.40;;;5.50;;
6424;SDS011;12193;42.642;23.384;2022-11-12T06:57:49;9.07;;;5.27;;
6424;SDS011;12193;42.642;23.384;2022-11-12T07:00:19;11.53;;;6.47;;
6424;SDS011;12193;42.642;23.384;2022-11-12T07:02:49;10.30;;;5.27;;
6424;SDS011;12193;42.642;23.384;2022-11-12T07:05:18;10.40;;;5.87;;
6424;SDS011;12193;42.642;23.384;2022-11-12T07:07:47;10.47;;;5.07;;
6424;SDS011;12193;42.642;23.384;2022-11-12T07:10:19;9.93;;;5.80;;
6424;SDS011;12193;42.642;23.384;2022-11-12T07:12:49;10.43;;;5.47;;
6424;SDS011;12193;42.642;23.384;2022-11-12T07:15:21;10.43;;;5.77;;
6424;SDS011;12193;42.642;23.384;2022-11-12T07:17:50;16.73;;;5.67;;
6424;SDS011;12193;42.642;23.384;2022-11-12T07:20:20;6.83;;;4.90;;
6424;SDS011;12193;42.642;23.384;2022-11-12T07:22:49;11.33;;;5.83;;
6424;SDS011;12193;42.642;23.384;2022-11-12T07:25:21;8.23;;;5.10;;
6424;SDS011;12193;42.642;23.384;2022-11-12T07:27:51;8.87;;;5.30;;
6424;SDS011;12193;42.642;23.384;2022-11-12T07:30:20;11.57;;;5.50;;
6424;SDS011;12193;42.642;23.384;2022-11-12T07:32:50;8.77;;;5.30;;
6424;SDS011;12193;42.642;23.384;2022-11-12T07:35:19;10.00;;;5.37;;
6424;SDS011;12193;42.642;23.384;2022-11-12T07:37:49;9.30;;;5.33;;
6424;SDS011;12193;42.642;23.384;2022-11-12T07:40:21;12.17;;;5.63;;
6424;SDS011;12193;42.642;23.384;2022-11-12T07:42:50;8.13;;;5.23;;
6424;SDS011;12193;42.642;23.384;2022-11-12T07:45:19;9.37;;;5.60;;
6424;SDS011;12193;42.642;23.384;2022-11-12T07:47:48;9.03;;;5.00;;
6424;SDS011;12193;42.642;23.384;2022-11-12T07:50:18;9.10;;;5.03;;
6424;SDS011;12193;42.642;23.384;2022-11-12T07:52:47;11.37;;;5.33;;
6424;SDS011;12193;42.642;23.384;2022-11-12T07:55:17;10.33;;;5.37;;
6424;SDS011;12193;42.642;23.384;2022-11-12T07:57:49;8.17;;;5.30;;
6424;SDS011;12193;42.642;23.384;2022-11-12T08:00:18;10.73;;;5.07;;
6424;SDS011;12193;42.642;23.384;2022-11-12T08:02:48;8.10;;;4.77;;
6424;SDS011;12193;42.642;23.384;2022-11-12T08:05:17;8.00;;;4.83;;
6424;SDS011;12193;42.642;23.384;2022-11-12T08:07:46;12.27;;;5.80;;
6424;SDS011;12193;42.642;23.384;2022-11-12T08:10:16;10.50;;;5.37;;
6424;SDS011;12193;42.642;23.384;2022-11-12T08:12:45;9.47;;;5.43;;
6424;SDS011;12193;42.642;23.384;2022-11-12T08:15:17;11.03;;;5.30;;
6424;SDS011;12193;42.642;23.384;2022-11-12T08:17:47;8.70;;;4.87;;
6424;SDS011;12193;42.642;23.384;2022-11-12T08:20:16;9.90;;;5.40;;
6424;SDS011;12193;42.642;23.384;2022-11-12T08:22:45;7.13;;;4.00;;
6424;SDS011;12193;42.642;23.384;2022-11-12T08:25:16;6.27;;;3.87;;
6424;SDS011;12193;42.642;23.384;2022-11-12T08:27:45;8.23;;;4.67;;
6424;SDS011;12193;42.642;23.384;2022-11-12T08:30:14;12.67;;;4.90;;
6424;SDS011;12193;42.642;23.384;2022-11-12T08:32:46;9.27;;;4.70;;
6424;SDS011;12193;42.642;23.384;2022-11-12T08:35:16;7.10;;;4.67;;
6424;SDS011;12193;42.642;23.384;2022-11-12T08:37:45;7.77;;;4.30;;
6424;SDS011;12193;42.642;23.384;2022-11-12T08:40:14;7.03;;;4.00;;
6424;SDS011;12193;42.642;23.384;2022-11-12T08:42:44;6.63;;;4.20;;
6424;SDS011;12193;42.642;23.384;2022-11-12T08:45:13;8.07;;;4.50;;
6424;SDS011;12193;42.642;23.384;2022-11-12T08:47:45;7.67;;;4.43;;
6424;SDS011;12193;42.642;23.384;2022-11-12T08:50:14;10.47;;;4.37;;
6424;SDS011;12193;42.642;23.384;2022-11-12T08:52:44;9.97;;;4.60;;
6424;SDS011;12193;42.642;23.384;2022-11-12T08:55:13;7.13;;;4.03;;
6424;SDS011;12193;42.642;23.384;2022-11-12T08:57:43;9.37;;;4.40;;
6424;SDS011;12193;42.642;23.384;2022-11-12T09:00:13;7.73;;;4.20;;
6424;SDS011;12193;42.642;23.384;2022-11-12T09:02:45;6.27;;;4.20;;
6424;SDS011;12193;42.642;23.384;2022-11-12T09:05:15;8.13;;;4.73;;
6424;SDS011;12193;42.642;23.384;2022-11-12T09:07:44;7.53;;;4.40;;
6424;SDS011;12193;42.642;23.384;2022-11-12T09:10:14;7.03;;;4.10;;
6424;SDS011;12193;42.642;23.384;2022-11-12T09:12:43;8.73;;;4.53;;
6424;SDS011;12193;42.642;23.384;2022-11-12T09:15:12;8.60;;;4.63;;
6424;SDS011;12193;42.642;23.384;2022-11-12T09:17:42;8.47;;;4.67;;
6424;SDS011;12193;42.642;23.384;2022-11-12T09:20:14;7.83;;;4.47;;
6424;SDS011;12193;42.642;23.384;2022-11-12T09:22:44;7.50;;;4.30;;
6424;SDS011;12193;42.642;23.384;2022-11-12T09:25:13;6.13;;;3.83;;
6424;SDS011;12193;42.642;23.384;2022-11-12T09:27:43;6.90;;;3.87;;
6424;SDS011;12193;42.642;23.384;2022-11-12T09:30:12;6.83;;;4.17;;
6424;SDS011;12193;42.642;23.384;2022-11-12T09:32:44;6.60;;;4.00;;
6424;SDS011;12193;42.642;23.384;2022-11-12T09:35:14;4.70;;;3.40;;
6424;SDS011;12193;42.642;23.384;2022-11-12T09:37:44;7.77;;;4.30;;
6424;SDS011;12193;42.642;23.384;2022-11-12T09:40:14;5.57;;;4.27;;
6424;SDS011;12193;42.642;23.384;2022-11-12T09:42:46;7.33;;;3.70;;
6424;SDS011;12193;42.642;23.384;2022-11-12T09:45:21;6.10;;;3.30;;
6424;SDS011;12193;42.642;23.384;2022-11-12T09:47:58;4.50;;;3.20;;
6424;SDS011;12193;42.642;23.384;2022-11-12T09:50:35;6.47;;;3.40;;
6424;SDS011;12193;42.642;23.384;2022-11-12T09:53:11;7.40;;;3.30;;
6424;SDS011;12193;42.642;23.384;2022-11-12T09:55:45;5.97;;;3.17;;
6424;SDS011;12193;42.642;23.384;2022-11-12T09:58:17;4.50;;;3.00;;
6424;SDS011;12193;42.642;23.384;2022-11-12T10:00:51;4.87;;;2.73;;
6424;SDS011;12193;42.642;23.384;2022-11-12T10:03:32;5.70;;;3.00;;
6424;SDS011;12193;42.642;23.384;2022-11-12T10:06:07;5.23;;;2.90;;
6424;SDS011;12193;42.642;23.384;2022-11-12T10:08:41;4.93;;;3.10;;
6424;SDS011;12193;42.642;23.384;2022-11-12T10:11:23;6.33;;;2.63;;
6424;SDS011;12193;42.642;23.384;2022-11-12T10:14:24;5.03;;;2.60;;
6424;SDS011;12193;42.642;23.384;2022-11-12T10:17:07;5.83;;;3.00;;
6424;SDS011;12193;42.642;23.384;2022-11-12T10:19:43;5.97;;;3.03;;
6424;SDS011;12193;42.642;23.384;2022-11-12T10:22:25;5.40;;;2.87;;
6424;SDS011;12193;42.642;23.384;2022-11-12T10:25:10;5.13;;;2.90;;
6424;SDS011;12193;42.642;23.384;2022-11-12T10:27:43;5.07;;;2.87;;
6424;SDS011;12193;42.642;23.384;2022-11-12T10:30:14;4.43;;;2.70;;
6424;SDS011;12193;42.642;23.384;2022-11-12T10:32:45;4.07;;;2.97;;
6424;SDS011;12193;42.642;23.384;2022-11-12T10:35:20;4.70;;;3.20;;
6424;SDS011;12193;42.642;23.384;2022-11-12T10:37:52;4.87;;;3.30;;
6424;SDS011;12193;42.642;23.384;2022-11-12T10:40:28;6.33;;;3.97;;
6424;SDS011;12193;42.642;23.384;2022-11-12T10:43:00;6.10;;;4.00;;
6424;SDS011;12193;42.642;23.384;2022-11-12T10:45:31;4.63;;;3.10;;
6424;SDS011;12193;42.642;23.384;2022-11-12T10:48:03;5.20;;;3.00;;
6424;SDS011;12193;42.642;23.384;2022-11-12T10:50:36;3.57;;;2.80;;
6424;SDS011;12193;42.642;23.384;2022-11-12T10:53:11;6.63;;;2.63;;
6424;SDS011;12193;42.642;23.384;2022-11-12T10:55:54;6.10;;;3.87;;
6424;SDS011;12193;42.642;23.384;2022-11-12T10:58:25;7.03;;;4.27;;
6424;SDS011;12193;42.642;23.384;2022-11-12T11:00:58;7.07;;;4.27;;
6424;SDS011;12193;42.642;23.384;2022-11-12T11:03:43;5.20;;;3.40;;
6424;SDS011;12193;42.642;23.384;2022-11-12T11:06:20;3.53;;;2.63;;
6424;SDS011;12193;42.642;23.384;2022-11-12T11:08:53;4.37;;;2.77;;
6424;SDS011;12193;42.642;23.384;2022-11-12T11:11:35;4.13;;;2.70;;
6424;SDS011;12193;42.642;23.384;2022-11-12T11:14:19;4.07;;;2.90;;
6424;SDS011;12193;42.642;23.384;2022-11-12T11:16:54;6.10;;;3.37;;
6424;SDS011;12193;42.642;23.384;2022-11-12T11:19:27;5.67;;;3.13;;
6424;SDS011;12193;42.642;23.384;2022-11-12T11:22:21;4.03;;;2.87;;
6424;SDS011;12193;42.642;23.384;2022-11-12T11:25:00;4.53;;;3.00;;
6424;SDS011;12193;42.642;23.384;2022-11-12T11:27:46;6.50;;;3.40;;
6424;SDS011;12193;42.642;23.384;2022-11-12T11:30:25;3.90;;;2.70;;
6424;SDS011;12193;42.642;23.384;2022-11-12T11:35:58;4.27;;;3.03;;
6424;SDS011;12193;42.642;23.384;2022-11-12T11:38:46;3.60;;;2.30;;
6424;SDS011;12193;42.642;23.384;2022-11-12T11:41:27;7.30;;;3.00;;
6424;SDS011;12193;42.642;23.384;2022-11-12T11:44:13;4.03;;;2.60;;
6424;SDS011;12193;42.642;23.384;2022-11-12T11:46:53;3.47;;;2.50;;
6424;SDS011;12193;42.642;23.384;2022-11-12T11:49:47;4.30;;;3.10;;
6424;SDS011;12193;42.642;23.384;2022-11-12T11:52:40;3.67;;;2.90;;
6424;SDS011;12193;42.642;23.384;2022-11-12T11:55:33;4.17;;;2.90;;
6424;SDS011;12193;42.642;23.384;2022-11-12T11:58:15;4.60;;;2.27;;
6424;SDS011;12193;42.642;23.384;2022-11-12T12:01:01;4.90;;;3.00;;
6424;SDS011;12193;42.642;23.384;2022-11-12T12:03:39;5.90;;;3.10;;
6424;SDS011;12193;42.642;23.384;2022-11-12T12:06:20;5.03;;;2.83;;
6424;SDS011;12193;42.642;23.384;2022-11-12T12:08:55;5.80;;;3.63;;
6424;SDS011;12193;42.642;23.384;2022-11-12T12:11:37;4.83;;;3.10;;
6424;SDS011;12193;42.642;23.384;2022-11-12T12:14:20;4.60;;;3.03;;
6424;SDS011;12193;42.642;23.384;2022-11-12T12:17:02;5.20;;;3.17;;
6424;SDS011;12193;42.642;23.384;2022-11-12T12:19:42;4.43;;;3.00;;
6424;SDS011;12193;42.642;23.384;2022-11-12T12:22:20;4.33;;;2.80;;
6424;SDS011;12193;42.642;23.384;2022-11-12T12:24:53;4.03;;;2.60;;
6424;SDS011;12193;42.642;23.384;2022-11-12T12:27:31;3.37;;;2.60;;
6424;SDS011;12193;42.642;23.384;2022-11-12T12:30:04;5.67;;;3.37;;
6424;SDS011;12193;42.642;23.384;2022-11-12T12:32:42;5.93;;;3.30;;
6424;SDS011;12193;42.642;23.384;2022-11-12T12:35:19;4.60;;;3.23;;
6424;SDS011;12193;42.642;23.384;2022-11-12T12:37:55;5.07;;;3.00;;
6424;SDS011;12193;42.642;23.384;2022-11-12T12:40:33;4.30;;;3.00;;
6424;SDS011;12193;42.642;23.384;2022-11-12T12:43:13;3.90;;;2.63;;
6424;SDS011;12193;42.642;23.384;2022-11-12T12:45:50;3.10;;;1.93;;
6424;SDS011;12193;42.642;23.384;2022-11-12T12:48:20;4.27;;;2.27;;
6424;SDS011;12193;42.642;23.384;2022-11-12T12:50:53;3.53;;;2.17;;
6424;SDS011;12193;42.642;23.384;2022-11-12T12:59:19;3.77;;;2.37;;
6424;SDS011;12193;42.642;23.384;2022-11-12T13:01:53;2.97;;;2.13;;
6424;SDS011;12193;42.642;23.384;2022-11-12T13:07:21;4.27;;;2.60;;
6424;SDS011;12193;42.642;23.384;2022-11-12T13:13:27;3.87;;;1.87;;
6424;SDS011;12193;42.642;23.384;2022-11-12T13:16:01;4.60;;;2.03;;
6424;SDS011;12193;42.642;23.384;2022-11-12T13:21:27;3.47;;;1.73;;
6424;SDS011;12193;42.642;23.384;2022-11-12T13:23:57;4.07;;;2.60;;
6424;SDS011;12193;42.642;23.384;2022-11-12T13:26:45;4.00;;;2.60;;
6424;SDS011;12193;42.642;23.384;2022-11-12T13:32:25;3.93;;;2.47;;
6424;SDS011;12193;42.642;23.384;2022-11-12T13:37:48;5.00;;;2.83;;
6424;SDS011;12193;42.642;23.384;2022-11-12T13:40:20;5.00;;;3.10;;
6424;SDS011;12193;42.642;23.384;2022-11-12T13:43:05;4.43;;;2.90;;
6424;SDS011;12193;42.642;23.384;2022-11-12T13:45:41;3.73;;;2.27;;
6424;SDS011;12193;42.642;23.384;2022-11-12T13:48:19;5.03;;;3.20;;
6424;SDS011;12193;42.642;23.384;2022-11-12T13:50:53;5.40;;;3.37;;
6424;SDS011;12193;42.642;23.384;2022-11-12T13:53:25;5.07;;;2.77;;
6424;SDS011;12193;42.642;23.384;2022-11-12T13:55:56;5.30;;;3.20;;
6424;SDS011;12193;42.642;23.384;2022-11-12T13:58:27;4.83;;;3.10;;
6424;SDS011;12193;42.642;23.384;2022-11-12T14:00:58;5.53;;;3.20;;
6424;SDS011;12193;42.642;23.384;2022-11-12T14:03:33;7.63;;;3.83;;
6424;SDS011;12193;42.642;23.384;2022-11-12T14:06:13;7.47;;;3.80;;
6424;SDS011;12193;42.642;23.384;2022-11-12T14:08:51;5.47;;;3.90;;
6424;SDS011;12193;42.642;23.384;2022-11-12T14:11:36;4.87;;;3.40;;
6424;SDS011;12193;42.642;23.384;2022-11-12T14:14:28;8.90;;;3.97;;
6424;SDS011;12193;42.642;23.384;2022-11-12T14:17:15;7.03;;;4.20;;
6424;SDS011;12193;42.642;23.384;2022-11-12T14:22:53;6.33;;;4.37;;
6424;SDS011;12193;42.642;23.384;2022-11-12T14:25:23;8.37;;;5.70;;
6424;SDS011;12193;42.642;23.384;2022-11-12T14:27:54;10.90;;;6.23;;
6424;SDS011;12193;42.642;23.384;2022-11-12T14:30:25;11.23;;;6.47;;
6424;SDS011;12193;42.642;23.384;2022-11-12T14:32:57;12.67;;;6.90;;
6424;SDS011;12193;42.642;23.384;2022-11-12T14:35:34;11.07;;;6.37;;
6424;SDS011;12193;42.642;23.384;2022-11-12T14:38:08;12.87;;;6.80;;
6424;SDS011;12193;42.642;23.384;2022-11-12T14:40:44;11.77;;;6.07;;
6424;SDS011;12193;42.642;23.384;2022-11-12T14:43:17;15.30;;;7.77;;
6424;SDS011;12193;42.642;23.384;2022-11-12T14:45:50;10.00;;;6.47;;
6424;SDS011;12193;42.642;23.384;2022-11-12T14:48:21;13.53;;;6.97;;
6424;SDS011;12193;42.642;23.384;2022-11-12T14:50:54;11.87;;;6.80;;
6424;SDS011;12193;42.642;23.384;2022-11-12T14:53:29;8.83;;;4.57;;
6424;SDS011;12193;42.642;23.384;2022-11-12T14:56:04;9.30;;;4.87;;
6424;SDS011;12193;42.642;23.384;2022-11-12T14:58:35;9.33;;;5.67;;
6424;SDS011;12193;42.642;23.384;2022-11-12T15:06:55;8.00;;;4.27;;
6424;SDS011;12193;42.642;23.384;2022-11-12T15:09:31;8.50;;;4.57;;
6424;SDS011;12193;42.642;23.384;2022-11-12T15:12:03;7.13;;;4.07;;
6424;SDS011;12193;42.642;23.384;2022-11-12T15:14:34;8.20;;;4.47;;
6424;SDS011;12193;42.642;23.384;2022-11-12T15:17:04;8.27;;;3.70;;
6424;SDS011;12193;42.642;23.384;2022-11-12T15:19:33;7.03;;;4.07;;
6424;SDS011;12193;42.642;23.384;2022-11-12T15:22:05;9.77;;;3.77;;
6424;SDS011;12193;42.642;23.384;2022-11-12T15:24:47;5.30;;;3.30;;
6424;SDS011;12193;42.642;23.384;2022-11-12T15:30:13;4.43;;;2.80;;
6424;SDS011;12193;42.642;23.384;2022-11-12T15:32:44;4.20;;;3.10;;
6424;SDS011;12193;42.642;23.384;2022-11-12T15:35:30;5.33;;;3.40;;
6424;SDS011;12193;42.642;23.384;2022-11-12T15:38:05;5.83;;;3.17;;
6424;SDS011;12193;42.642;23.384;2022-11-12T15:40:39;4.93;;;3.30;;
6424;SDS011;12193;42.642;23.384;2022-11-12T15:43:14;6.77;;;3.70;;
6424;SDS011;12193;42.642;23.384;2022-11-12T15:45:48;7.23;;;3.77;;
6424;SDS011;12193;42.642;23.384;2022-11-12T15:48:19;5.27;;;3.20;;
6424;SDS011;12193;42.642;23.384;2022-11-12T15:50:49;5.97;;;3.63;;
6424;SDS011;12193;42.642;23.384;2022-11-12T15:53:20;10.17;;;5.27;;
6424;SDS011;12193;42.642;23.384;2022-11-12T15:55:50;9.27;;;5.57;;
6424;SDS011;12193;42.642;23.384;2022-11-12T15:58:24;8.50;;;5.63;;
6424;SDS011;12193;42.642;23.384;2022-11-12T16:00:58;8.30;;;4.67;;
6424;SDS011;12193;42.642;23.384;2022-11-12T16:03:28;7.33;;;4.77;;
6424;SDS011;12193;42.642;23.384;2022-11-12T16:05:57;7.73;;;4.77;;
6424;SDS011;12193;42.642;23.384;2022-11-12T16:08:29;9.73;;;5.47;;
6424;SDS011;12193;42.642;23.384;2022-11-12T16:10:58;6.27;;;4.20;;
6424;SDS011;12193;42.642;23.384;2022-11-12T16:13:28;7.27;;;4.30;;
6424;SDS011;12193;42.642;23.384;2022-11-12T16:16:00;8.17;;;4.70;;
6424;SDS011;12193;42.642;23.384;2022-11-12T16:18:33;7.17;;;4.47;;
6424;SDS011;12193;42.642;23.384;2022-11-12T16:21:03;9.30;;;4.10;;
6424;SDS011;12193;42.642;23.384;2022-11-12T16:23:36;7.97;;;4.27;;
6424;SDS011;12193;42.642;23.384;2022-11-12T16:26:06;7.80;;;3.90;;
6424;SDS011;12193;42.642;23.384;2022-11-12T16:28:36;7.23;;;4.03;;
6424;SDS011;12193;42.642;23.384;2022-11-12T16:31:05;6.40;;;3.60;;
6424;SDS011;12193;42.642;23.384;2022-11-12T16:33:35;7.27;;;4.83;;
6424;SDS011;12193;42.642;23.384;2022-11-12T16:36:09;9.47;;;5.23;;
6424;SDS011;12193;42.642;23.384;2022-11-12T16:38:44;8.33;;;5.37;;
6424;SDS011;12193;42.642;23.384;2022-11-12T16:41:14;11.30;;;6.00;;
6424;SDS011;12193;42.642;23.384;2022-11-12T16:43:43;8.23;;;5.00;;
6424;SDS011;12193;42.642;23.384;2022-11-12T16:46:13;10.93;;;5.70;;
6424;SDS011;12193;42.642;23.384;2022-11-12T16:48:48;8.20;;;4.87;;
6424;SDS011;12193;42.642;23.384;2022-11-12T16:51:17;7.93;;;4.77;;
6424;SDS011;12193;42.642;23.384;2022-11-12T16:53:50;9.97;;;5.17;;
6424;SDS011;12193;42.642;23.384;2022-11-12T16:56:20;9.27;;;4.70;;
6424;SDS011;12193;42.642;23.384;2022-11-12T16:58:51;9.33;;;4.27;;
6424;SDS011;12193;42.642;23.384;2022-11-12T17:01:22;8.33;;;5.37;;
6424;SDS011;12193;42.642;23.384;2022-11-12T17:03:53;6.97;;;4.70;;
6424;SDS011;12193;42.642;23.384;2022-11-12T17:06:30;9.73;;;5.90;;
6424;SDS011;12193;42.642;23.384;2022-11-12T17:09:04;11.30;;;6.00;;
6424;SDS011;12193;42.642;23.384;2022-11-12T17:11:34;11.83;;;6.57;;
6424;SDS011;12193;42.642;23.384;2022-11-12T17:14:05;12.40;;;7.23;;
6424;SDS011;12193;42.642;23.384;2022-11-12T17:16:35;14.90;;;6.90;;
6424;SDS011;12193;42.642;23.384;2022-11-12T17:19:04;13.40;;;6.97;;
